sensor_id;sensor_type;location;lat;lon;timestamp;pressure;altitude;pressure_sealevel;temperature;humidity
34103;BME280;20381;54.498;18.206;2023-08-30T00:01:52;98449.06;;;17.24;100.00
34103;BME280;20381;54.498;18.206;2023-08-30T00:04:20;98446.02;;;17.23;100.00
34103;BME280;20381;54.498;18.206;2023-08-30T00:06:50;98441.47;;;17.25;100.00
34103;BME280;20381;54.498;18.206;2023-08-30T00:09:19;98442.64;;;17.26;100.00
34103;BME280;20381;54.498;18.206;2023-08-30T00:11:47;98446.52;;;17.25;100.00
34103;BME280;20381;54.498;18.206;2023-08-30T00:14:15;98444.05;;;17.27;100.00
34103;BME280;20381;54.498;18.206;2023-08-30T00:16:44;98442.72;;;17.30;100.00
34103;BME280;20381;54.498;18.206;2023-08-30T00:19:13;98444.34;;;17.30;100.00
34103;BME280;20381;54.498;18.206;2023-08-30T00:21:42;98437.14;;;17.31;100.00
34103;BME280;20381;54.498;18.206;2023-08-30T00:24:11;98438.84;;;17.36;100.00
34103;BME280;20381;54.498;18.206;2023-08-30T00:26:40;98440.06;;;17.36;100.00
34103;BME280;20381;54.498;18.206;2023-08-30T00:29:12;98439.92;;;17.35;100.00
34103;BME280;20381;54.498;18.206;2023-08-30T00:31:40;98437.18;;;17.38;100.00
34103;BME280;20381;54.498;18.206;2023-08-30T00:34:09;98436.92;;;17.39;100.00
34103;BME280;20381;54.498;18.206;2023-08-30T00:36:38;98434.23;;;17.36;100.00
34103;BME280;20381;54.498;18.206;2023-08-30T00:39:06;98434.73;;;17.36;100.00
34103;BME280;20381;54.498;18.206;2023-08-30T00:41:36;98432.58;;;17.38;100.00
34103;BME280;20381;54.498;18.206;2023-08-30T00:44:06;98422.11;;;17.41;100.00
34103;BME280;20381;54.498;18.206;2023-08-30T00:46:35;98417.13;;;17.44;100.00
34103;BME280;20381;54.498;18.206;2023-08-30T00:49:04;98417.66;;;17.42;100.00
34103;BME280;20381;54.498;18.206;2023-08-30T00:51:33;98417.79;;;17.40;100.00
34103;BME280;20381;54.498;18.206;2023-08-30T00:54:02;98415.90;;;17.34;100.00
34103;BME280;20381;54.498;18.206;2023-08-30T00:56:33;98406.81;;;17.34;100.00
34103;BME280;20381;54.498;18.206;2023-08-30T00:59:02;98400.42;;;17.36;100.00
34103;BME280;20381;54.498;18.206;2023-08-30T01:01:31;98399.02;;;17.40;100.00
34103;BME280;20381;54.498;18.206;2023-08-30T01:04:01;98402.79;;;17.41;100.00
34103;BME280;20381;54.498;18.206;2023-08-30T01:06:30;98401.77;;;17.39;100.00
34103;BME280;20381;54.498;18.206;2023-08-30T01:08:58;98397.44;;;17.34;100.00
34103;BME280;20381;54.498;18.206;2023-08-30T01:11:46;98397.00;;;17.34;100.00
34103;BME280;20381;54.498;18.206;2023-08-30T01:14:21;98401.91;;;17.34;100.00
34103;BME280;20381;54.498;18.206;2023-08-30T01:16:51;98403.70;;;17.34;100.00
34103;BME280;20381;54.498;18.206;2023-08-30T01:22:11;98404.63;;;17.26;100.00
34103;BME280;20381;54.498;18.206;2023-08-30T01:24:55;98410.39;;;17.22;100.00
34103;BME280;20381;54.498;18.206;2023-08-30T01:27:27;98414.71;;;17.17;100.00
34103;BME280;20381;54.498;18.206;2023-08-30T01:29:56;98416.92;;;17.20;100.00
34103;BME280;20381;54.498;18.206;2023-08-30T01:32:26;98422.70;;;17.22;100.00
34103;BME280;20381;54.498;18.206;2023-08-30T01:34:57;98419.88;;;17.24;100.00
34103;BME280;20381;54.498;18.206;2023-08-30T01:37:27;98415.76;;;17.25;100.00
34103;BME280;20381;54.498;18.206;2023-08-30T01:39:56;98415.75;;;17.23;100.00
34103;BME280;20381;54.498;18.206;2023-08-30T01:42:26;98404.80;;;17.18;100.00
34103;BME280;20381;54.498;18.206;2023-08-30T01:44:56;98407.10;;;17.19;100.00
34103;BME280;20381;54.498;18.206;2023-08-30T01:47:28;98399.12;;;17.22;100.00
34103;BME280;20381;54.498;18.206;2023-08-30T01:49:58;98390.70;;;17.20;100.00
34103;BME280;20381;54.498;18.206;2023-08-30T01:52:27;98385.41;;;17.20;100.00
34103;BME280;20381;54.498;18.206;2023-08-30T01:54:57;98386.77;;;17.25;100.00
34103;BME280;20381;54.498;18.206;2023-08-30T01:57:26;98384.70;;;17.24;100.00
34103;BME280;20381;54.498;18.206;2023-08-30T01:59:55;98382.83;;;17.21;100.00
34103;BME280;20381;54.498;18.206;2023-08-30T02:02:23;98381.34;;;17.26;100.00
34103;BME280;20381;54.498;18.206;2023-08-30T02:04:53;98378.88;;;17.28;100.00
34103;BME280;20381;54.498;18.206;2023-08-30T02:10:36;98387.12;;;17.17;100.00
34103;BME280;20381;54.498;18.206;2023-08-30T02:13:06;98386.73;;;17.12;100.00
34103;BME280;20381;54.498;18.206;2023-08-30T02:15:36;98383.23;;;17.06;100.00
34103;BME280;20381;54.498;18.206;2023-08-30T02:18:06;98380.01;;;17.01;100.00
34103;BME280;20381;54.498;18.206;2023-08-30T02:20:36;98375.27;;;16.94;100.00
34103;BME280;20381;54.498;18.206;2023-08-30T02:23:04;98376.90;;;16.90;100.00
34103;BME280;20381;54.498;18.206;2023-08-30T02:25:42;98374.17;;;16.84;100.00
34103;BME280;20381;54.498;18.206;2023-08-30T02:28:10;98378.83;;;16.79;100.00
34103;BME280;20381;54.498;18.206;2023-08-30T02:30:39;98372.65;;;16.75;100.00
34103;BME280;20381;54.498;18.206;2023-08-30T02:33:08;98376.14;;;16.69;100.00
34103;BME280;20381;54.498;18.206;2023-08-30T02:35:37;98373.34;;;16.65;100.00
34103;BME280;20381;54.498;18.206;2023-08-30T02:38:09;98373.02;;;16.63;100.00
34103;BME280;20381;54.498;18.206;2023-08-30T02:40:38;98368.91;;;16.61;100.00
34103;BME280;20381;54.498;18.206;2023-08-30T02:43:07;98371.33;;;16.57;100.00
34103;BME280;20381;54.498;18.206;2023-08-30T02:45:36;98368.10;;;16.56;100.00
34103;BME280;20381;54.498;18.206;2023-08-30T02:48:05;98370.02;;;16.54;100.00
34103;BME280;20381;54.498;18.206;2023-08-30T02:50:35;98374.27;;;16.52;100.00
34103;BME280;20381;54.498;18.206;2023-08-30T02:53:03;98379.52;;;16.52;100.00
34103;BME280;20381;54.498;18.206;2023-08-30T02:55:32;98372.31;;;16.50;100.00
34103;BME280;20381;54.498;18.206;2023-08-30T02:58:01;98374.84;;;16.50;100.00
34103;BME280;20381;54.498;18.206;2023-08-30T03:00:30;98377.94;;;16.50;100.00
34103;BME280;20381;54.498;18.206;2023-08-30T03:02:59;98380.52;;;16.49;100.00
34103;BME280;20381;54.498;18.206;2023-08-30T03:05:28;98388.98;;;16.51;100.00
34103;BME280;20381;54.498;18.206;2023-08-30T03:07:57;98391.39;;;16.49;100.00
34103;BME280;20381;54.498;18.206;2023-08-30T03:10:26;98396.46;;;16.51;100.00
34103;BME280;20381;54.498;18.206;2023-08-30T03:12:55;98399.41;;;16.52;100.00
34103;BME280;20381;54.498;18.206;2023-08-30T03:15:23;98403.77;;;16.50;100.00
34103;BME280;20381;54.498;18.206;2023-08-30T03:17:52;98405.28;;;16.49;100.00
34103;BME280;20381;54.498;18.206;2023-08-30T03:20:21;98398.66;;;16.48;100.00
34103;BME280;20381;54.498;18.206;2023-08-30T03:22:50;98401.89;;;16.46;100.00
34103;BME280;20381;54.498;18.206;2023-08-30T03:25:19;98400.52;;;16.44;100.00
34103;BME280;20381;54.498;18.206;2023-08-30T03:27:47;98405.83;;;16.41;100.00
34103;BME280;20381;54.498;18.206;2023-08-30T03:30:16;98405.88;;;16.39;100.00
34103;BME280;20381;54.498;18.206;2023-08-30T03:32:45;98409.99;;;16.40;100.00
34103;BME280;20381;54.498;18.206;2023-08-30T03:35:14;98410.61;;;16.39;100.00
34103;BME280;20381;54.498;18.206;2023-08-30T03:37:44;98412.44;;;16.38;100.00
34103;BME280;20381;54.498;18.206;2023-08-30T03:40:15;98408.94;;;16.38;100.00
34103;BME280;20381;54.498;18.206;2023-08-30T03:42:44;98411.86;;;16.37;100.00
34103;BME280;20381;54.498;18.206;2023-08-30T03:45:13;98408.65;;;16.33;100.00
34103;BME280;20381;54.498;18.206;2023-08-30T03:47:42;98415.73;;;16.32;100.00
34103;BME280;20381;54.498;18.206;2023-08-30T03:50:10;98421.98;;;16.31;100.00
34103;BME280;20381;54.498;18.206;2023-08-30T03:52:39;98423.31;;;16.32;100.00
34103;BME280;20381;54.498;18.206;2023-08-30T03:55:08;98422.03;;;16.33;100.00
34103;BME280;20381;54.498;18.206;2023-08-30T03:57:36;98426.53;;;16.36;100.00
34103;BME280;20381;54.498;18.206;2023-08-30T04:00:05;98426.15;;;16.37;100.00
34103;BME280;20381;54.498;18.206;2023-08-30T04:02:33;98417.75;;;16.38;100.00
34103;BME280;20381;54.498;18.206;2023-08-30T04:05:02;98420.36;;;16.38;100.00
34103;BME280;20381;54.498;18.206;2023-08-30T04:07:32;98415.48;;;16.38;100.00
34103;BME280;20381;54.498;18.206;2023-08-30T04:10:01;98419.88;;;16.33;100.00
34103;BME280;20381;54.498;18.206;2023-08-30T04:12:30;98422.86;;;16.33;100.00
34103;BME280;20381;54.498;18.206;2023-08-30T04:15:00;98427.30;;;16.31;100.00
34103;BME280;20381;54.498;18.206;2023-08-30T04:17:29;98428.70;;;16.27;100.00
34103;BME280;20381;54.498;18.206;2023-08-30T04:19:57;98427.98;;;16.23;100.00
34103;BME280;20381;54.498;18.206;2023-08-30T04:22:26;98428.79;;;16.22;100.00
34103;BME280;20381;54.498;18.206;2023-08-30T04:24:54;98427.80;;;16.23;100.00
34103;BME280;20381;54.498;18.206;2023-08-30T04:27:24;98429.41;;;16.23;100.00
34103;BME280;20381;54.498;18.206;2023-08-30T04:29:52;98427.09;;;16.22;100.00
34103;BME280;20381;54.498;18.206;2023-08-30T04:32:21;98423.35;;;16.19;100.00
34103;BME280;20381;54.498;18.206;2023-08-30T04:34:50;98415.40;;;16.19;100.00
34103;BME280;20381;54.498;18.206;2023-08-30T04:37:19;98415.48;;;16.20;100.00
34103;BME280;20381;54.498;18.206;2023-08-30T04:39:47;98418.95;;;16.19;100.00
34103;BME280;20381;54.498;18.206;2023-08-30T04:42:17;98419.55;;;16.20;100.00
34103;BME280;20381;54.498;18.206;2023-08-30T04:44:45;98423.11;;;16.19;100.00
34103;BME280;20381;54.498;18.206;2023-08-30T04:47:18;98424.50;;;16.19;100.00
34103;BME280;20381;54.498;18.206;2023-08-30T04:49:55;98422.80;;;16.21;100.00
34103;BME280;20381;54.498;18.206;2023-08-30T04:52:24;98418.89;;;16.23;100.00
34103;BME280;20381;54.498;18.206;2023-08-30T04:54:53;98417.86;;;16.27;100.00
34103;BME280;20381;54.498;18.206;2023-08-30T04:57:21;98417.16;;;16.28;100.00
34103;BME280;20381;54.498;18.206;2023-08-30T04:59:50;98411.84;;;16.31;100.00
34103;BME280;20381;54.498;18.206;2023-08-30T05:02:19;98410.44;;;16.37;100.00
34103;BME280;20381;54.498;18.206;2023-08-30T05:04:47;98407.96;;;16.41;100.00
34103;BME280;20381;54.498;18.206;2023-08-30T05:07:16;98406.80;;;16.48;100.00
34103;BME280;20381;54.498;18.206;2023-08-30T05:09:44;98406.55;;;16.54;100.00
34103;BME280;20381;54.498;18.206;2023-08-30T05:12:13;98410.66;;;16.57;100.00
34103;BME280;20381;54.498;18.206;2023-08-30T05:14:42;98410.63;;;16.56;100.00
34103;BME280;20381;54.498;18.206;2023-08-30T05:17:11;98410.20;;;16.56;100.00
34103;BME280;20381;54.498;18.206;2023-08-30T05:19:40;98410.45;;;16.58;100.00
34103;BME280;20381;54.498;18.206;2023-08-30T05:22:09;98413.48;;;16.59;100.00
34103;BME280;20381;54.498;18.206;2023-08-30T05:24:37;98421.83;;;16.62;100.00
34103;BME280;20381;54.498;18.206;2023-08-30T05:27:06;98426.24;;;16.65;100.00
34103;BME280;20381;54.498;18.206;2023-08-30T05:29:35;98427.29;;;16.69;100.00
34103;BME280;20381;54.498;18.206;2023-08-30T05:32:04;98423.02;;;16.72;100.00
34103;BME280;20381;54.498;18.206;2023-08-30T05:34:39;98419.80;;;16.72;100.00
34103;BME280;20381;54.498;18.206;2023-08-30T05:37:10;98419.68;;;16.73;100.00
34103;BME280;20381;54.498;18.206;2023-08-30T05:39:39;98419.17;;;16.75;100.00
34103;BME280;20381;54.498;18.206;2023-08-30T05:42:11;98419.98;;;16.81;100.00
34103;BME280;20381;54.498;18.206;2023-08-30T05:44:39;98418.08;;;16.82;100.00
34103;BME280;20381;54.498;18.206;2023-08-30T05:47:08;98418.80;;;16.82;100.00
34103;BME280;20381;54.498;18.206;2023-08-30T05:49:43;98419.71;;;16.83;100.00
34103;BME280;20381;54.498;18.206;2023-08-30T05:52:15;98422.18;;;16.83;100.00
34103;BME280;20381;54.498;18.206;2023-08-30T05:54:46;98424.16;;;16.81;100.00
34103;BME280;20381;54.498;18.206;2023-08-30T05:57:15;98429.83;;;16.78;100.00
34103;BME280;20381;54.498;18.206;2023-08-30T05:59:44;98432.12;;;16.76;100.00
34103;BME280;20381;54.498;18.206;2023-08-30T06:02:12;98436.22;;;16.81;100.00
34103;BME280;20381;54.498;18.206;2023-08-30T06:05:16;98432.79;;;16.83;100.00
34103;BME280;20381;54.498;18.206;2023-08-30T06:07:48;98433.31;;;16.76;100.00
34103;BME280;20381;54.498;18.206;2023-08-30T06:10:17;98432.80;;;16.82;100.00
34103;BME280;20381;54.498;18.206;2023-08-30T06:12:46;98433.33;;;16.86;100.00
34103;BME280;20381;54.498;18.206;2023-08-30T06:15:15;98436.54;;;16.89;100.00
34103;BME280;20381;54.498;18.206;2023-08-30T06:17:44;98435.43;;;16.88;100.00
34103;BME280;20381;54.498;18.206;2023-08-30T06:20:15;98432.81;;;16.84;100.00
34103;BME280;20381;54.498;18.206;2023-08-30T06:22:43;98433.41;;;16.85;100.00
34103;BME280;20381;54.498;18.206;2023-08-30T06:25:13;98431.85;;;16.85;100.00
34103;BME280;20381;54.498;18.206;2023-08-30T06:27:54;98432.21;;;16.85;100.00
34103;BME280;20381;54.498;18.206;2023-08-30T06:30:26;98427.54;;;16.84;100.00
34103;BME280;20381;54.498;18.206;2023-08-30T06:33:04;98427.29;;;16.77;100.00
34103;BME280;20381;54.498;18.206;2023-08-30T06:35:36;98428.94;;;16.76;100.00
34103;BME280;20381;54.498;18.206;2023-08-30T06:38:07;98432.73;;;16.79;100.00
34103;BME280;20381;54.498;18.206;2023-08-30T06:40:37;98437.43;;;16.82;100.00
34103;BME280;20381;54.498;18.206;2023-08-30T06:43:13;98438.40;;;16.86;100.00
34103;BME280;20381;54.498;18.206;2023-08-30T06:45:42;98440.15;;;16.87;100.00
34103;BME280;20381;54.498;18.206;2023-08-30T06:48:12;98439.73;;;16.83;100.00
34103;BME280;20381;54.498;18.206;2023-08-30T06:50:44;98437.63;;;16.85;100.00
34103;BME280;20381;54.498;18.206;2023-08-30T06:53:13;98440.36;;;16.88;100.00
34103;BME280;20381;54.498;18.206;2023-08-30T06:55:43;98438.11;;;16.93;100.00
34103;BME280;20381;54.498;18.206;2023-08-30T06:58:13;98432.82;;;17.02;100.00
34103;BME280;20381;54.498;18.206;2023-08-30T07:00:42;98422.30;;;17.12;100.00
34103;BME280;20381;54.498;18.206;2023-08-30T07:03:11;98423.14;;;17.23;100.00
34103;BME280;20381;54.498;18.206;2023-08-30T07:05:41;98424.78;;;17.32;100.00
34103;BME280;20381;54.498;18.206;2023-08-30T07:08:12;98423.09;;;17.40;100.00
34103;BME280;20381;54.498;18.206;2023-08-30T07:10:41;98429.19;;;17.42;100.00
34103;BME280;20381;54.498;18.206;2023-08-30T07:13:10;98434.47;;;17.48;100.00
34103;BME280;20381;54.498;18.206;2023-08-30T07:15:40;98437.77;;;17.52;100.00
34103;BME280;20381;54.498;18.206;2023-08-30T07:18:09;98440.39;;;17.52;100.00
34103;BME280;20381;54.498;18.206;2023-08-30T07:20:39;98445.33;;;17.54;100.00
34103;BME280;20381;54.498;18.206;2023-08-30T07:23:07;98451.09;;;17.60;100.00
34103;BME280;20381;54.498;18.206;2023-08-30T07:25:38;98452.55;;;17.66;100.00
34103;BME280;20381;54.498;18.206;2023-08-30T07:28:10;98459.77;;;17.72;100.00
34103;BME280;20381;54.498;18.206;2023-08-30T07:30:48;98468.70;;;17.77;100.00
34103;BME280;20381;54.498;18.206;2023-08-30T07:33:51;98481.38;;;17.80;100.00
34103;BME280;20381;54.498;18.206;2023-08-30T07:36:23;98480.43;;;17.83;100.00
34103;BME280;20381;54.498;18.206;2023-08-30T07:39:13;98485.51;;;17.90;100.00
34103;BME280;20381;54.498;18.206;2023-08-30T07:41:41;98482.23;;;18.00;100.00
34103;BME280;20381;54.498;18.206;2023-08-30T07:44:10;98481.52;;;18.07;100.00
34103;BME280;20381;54.498;18.206;2023-08-30T07:46:38;98488.91;;;18.13;100.00
34103;BME280;20381;54.498;18.206;2023-08-30T07:49:07;98490.84;;;18.17;100.00
34103;BME280;20381;54.498;18.206;2023-08-30T07:51:36;98498.73;;;18.19;100.00
34103;BME280;20381;54.498;18.206;2023-08-30T07:54:04;98500.84;;;18.18;100.00
34103;BME280;20381;54.498;18.206;2023-08-30T07:56:33;98503.29;;;18.16;100.00
34103;BME280;20381;54.498;18.206;2023-08-30T07:59:02;98505.80;;;18.15;100.00
34103;BME280;20381;54.498;18.206;2023-08-30T08:01:30;98502.48;;;18.19;100.00
34103;BME280;20381;54.498;18.206;2023-08-30T08:04:00;98504.55;;;18.24;100.00
34103;BME280;20381;54.498;18.206;2023-08-30T08:06:35;98506.17;;;18.31;100.00
34103;BME280;20381;54.498;18.206;2023-08-30T08:09:05;98506.52;;;18.38;100.00
34103;BME280;20381;54.498;18.206;2023-08-30T08:11:36;98512.48;;;18.45;100.00
34103;BME280;20381;54.498;18.206;2023-08-30T08:14:04;98512.64;;;18.49;100.00
34103;BME280;20381;54.498;18.206;2023-08-30T08:16:33;98514.38;;;18.54;100.00
34103;BME280;20381;54.498;18.206;2023-08-30T08:19:02;98512.50;;;18.56;100.00
34103;BME280;20381;54.498;18.206;2023-08-30T08:21:31;98516.36;;;18.60;100.00
34103;BME280;20381;54.498;18.206;2023-08-30T08:23:59;98514.45;;;18.58;100.00
34103;BME280;20381;54.498;18.206;2023-08-30T08:26:28;98516.17;;;18.52;100.00
34103;BME280;20381;54.498;18.206;2023-08-30T08:28:57;98518.73;;;18.59;100.00
34103;BME280;20381;54.498;18.206;2023-08-30T08:31:26;98520.13;;;18.71;100.00
34103;BME280;20381;54.498;18.206;2023-08-30T08:34:09;98520.88;;;18.84;100.00
34103;BME280;20381;54.498;18.206;2023-08-30T08:36:40;98509.83;;;18.97;100.00
34103;BME280;20381;54.498;18.206;2023-08-30T08:39:09;98500.21;;;19.19;100.00
34103;BME280;20381;54.498;18.206;2023-08-30T08:41:42;98504.09;;;19.27;100.00
34103;BME280;20381;54.498;18.206;2023-08-30T08:44:12;98509.20;;;19.20;100.00
34103;BME280;20381;54.498;18.206;2023-08-30T08:46:41;98514.48;;;19.22;100.00
34103;BME280;20381;54.498;18.206;2023-08-30T08:49:15;98523.61;;;19.23;100.00
34103;BME280;20381;54.498;18.206;2023-08-30T08:51:45;98522.61;;;19.24;100.00
34103;BME280;20381;54.498;18.206;2023-08-30T08:54:17;98530.09;;;19.21;100.00
34103;BME280;20381;54.498;18.206;2023-08-30T08:56:46;98527.35;;;19.22;100.00
34103;BME280;20381;54.498;18.206;2023-08-30T08:59:15;98527.10;;;19.20;100.00
34103;BME280;20381;54.498;18.206;2023-08-30T09:01:43;98530.69;;;19.16;100.00
34103;BME280;20381;54.498;18.206;2023-08-30T09:04:12;98531.33;;;19.02;100.00
34103;BME280;20381;54.498;18.206;2023-08-30T09:06:41;98532.09;;;18.84;100.00
34103;BME280;20381;54.498;18.206;2023-08-30T09:09:14;98529.80;;;18.74;100.00
34103;BME280;20381;54.498;18.206;2023-08-30T09:11:43;98528.88;;;18.70;100.00
34103;BME280;20381;54.498;18.206;2023-08-30T09:14:19;98531.28;;;18.69;100.00
34103;BME280;20381;54.498;18.206;2023-08-30T09:17:02;98538.38;;;18.72;100.00
34103;BME280;20381;54.498;18.206;2023-08-30T09:19:31;98543.36;;;18.84;100.00
34103;BME280;20381;54.498;18.206;2023-08-30T09:22:00;98540.76;;;18.94;100.00
34103;BME280;20381;54.498;18.206;2023-08-30T09:24:39;98541.11;;;19.05;100.00
34103;BME280;20381;54.498;18.206;2023-08-30T09:27:08;98549.71;;;19.18;100.00
34103;BME280;20381;54.498;18.206;2023-08-30T09:29:37;98544.99;;;19.26;100.00
34103;BME280;20381;54.498;18.206;2023-08-30T09:32:07;98542.37;;;19.34;100.00
34103;BME280;20381;54.498;18.206;2023-08-30T09:34:45;98543.60;;;19.44;100.00
34103;BME280;20381;54.498;18.206;2023-08-30T09:37:21;98541.59;;;19.40;100.00
34103;BME280;20381;54.498;18.206;2023-08-30T09:39:51;98541.24;;;19.30;100.00
34103;BME280;20381;54.498;18.206;2023-08-30T09:42:20;98545.98;;;19.23;100.00
34103;BME280;20381;54.498;18.206;2023-08-30T09:44:50;98549.77;;;19.19;100.00
34103;BME280;20381;54.498;18.206;2023-08-30T09:47:19;98544.73;;;19.15;100.00
34103;BME280;20381;54.498;18.206;2023-08-30T09:49:49;98545.82;;;19.06;100.00
34103;BME280;20381;54.498;18.206;2023-08-30T09:52:23;98545.59;;;19.00;100.00
34103;BME280;20381;54.498;18.206;2023-08-30T09:54:52;98539.36;;;19.09;100.00
34103;BME280;20381;54.498;18.206;2023-08-30T09:57:21;98537.73;;;19.18;100.00
34103;BME280;20381;54.498;18.206;2023-08-30T09:59:59;98536.76;;;19.24;100.00
34103;BME280;20381;54.498;18.206;2023-08-30T10:02:30;98541.52;;;19.37;100.00
34103;BME280;20381;54.498;18.206;2023-08-30T10:05:00;98545.30;;;19.58;100.00
34103;BME280;20381;54.498;18.206;2023-08-30T10:07:30;98546.67;;;19.65;100.00
34103;BME280;20381;54.498;18.206;2023-08-30T10:09:59;98543.11;;;19.82;100.00
34103;BME280;20381;54.498;18.206;2023-08-30T10:12:32;98548.00;;;19.96;100.00
34103;BME280;20381;54.498;18.206;2023-08-30T10:15:01;98554.66;;;20.09;100.00
34103;BME280;20381;54.498;18.206;2023-08-30T10:17:34;98555.16;;;20.25;100.00
34103;BME280;20381;54.498;18.206;2023-08-30T10:20:05;98553.05;;;20.35;100.00
34103;BME280;20381;54.498;18.206;2023-08-30T10:22:39;98546.31;;;20.44;100.00
34103;BME280;20381;54.498;18.206;2023-08-30T10:25:21;98547.23;;;20.50;100.00
34103;BME280;20381;54.498;18.206;2023-08-30T10:27:51;98548.64;;;20.47;100.00
34103;BME280;20381;54.498;18.206;2023-08-30T10:30:22;98550.77;;;20.50;100.00
34103;BME280;20381;54.498;18.206;2023-08-30T10:32:52;98560.21;;;20.51;100.00
34103;BME280;20381;54.498;18.206;2023-08-30T10:35:21;98561.58;;;20.52;100.00
34103;BME280;20381;54.498;18.206;2023-08-30T10:37:58;98557.64;;;20.54;100.00
34103;BME280;20381;54.498;18.206;2023-08-30T10:40:28;98560.45;;;20.37;100.00
34103;BME280;20381;54.498;18.206;2023-08-30T10:45:29;98560.44;;;20.04;100.00
34103;BME280;20381;54.498;18.206;2023-08-30T10:47:59;98563.30;;;19.90;100.00
34103;BME280;20381;54.498;18.206;2023-08-30T10:50:30;98559.31;;;19.72;100.00
34103;BME280;20381;54.498;18.206;2023-08-30T10:52:59;98558.31;;;19.55;100.00
34103;BME280;20381;54.498;18.206;2023-08-30T10:55:28;98561.15;;;19.40;100.00
34103;BME280;20381;54.498;18.206;2023-08-30T10:58:02;98561.90;;;19.31;100.00
34103;BME280;20381;54.498;18.206;2023-08-30T11:00:31;98569.34;;;19.21;100.00
34103;BME280;20381;54.498;18.206;2023-08-30T11:03:03;98570.88;;;19.11;100.00
34103;BME280;20381;54.498;18.206;2023-08-30T11:05:33;98569.73;;;19.14;100.00
34103;BME280;20381;54.498;18.206;2023-08-30T11:08:12;98566.48;;;19.13;100.00
34103;BME280;20381;54.498;18.206;2023-08-30T11:10:42;98562.77;;;19.06;100.00
34103;BME280;20381;54.498;18.206;2023-08-30T11:13:14;98563.42;;;19.11;100.00
34103;BME280;20381;54.498;18.206;2023-08-30T11:15:44;98566.23;;;19.30;100.00
34103;BME280;20381;54.498;18.206;2023-08-30T11:18:19;98562.15;;;19.53;100.00
34103;BME280;20381;54.498;18.206;2023-08-30T11:20:47;98561.92;;;19.67;100.00
34103;BME280;20381;54.498;18.206;2023-08-30T11:23:16;98565.59;;;19.64;100.00
34103;BME280;20381;54.498;18.206;2023-08-30T11:25:50;98567.16;;;19.66;100.00
34103;BME280;20381;54.498;18.206;2023-08-30T11:28:23;98566.48;;;19.71;100.00
34103;BME280;20381;54.498;18.206;2023-08-30T11:30:55;98570.94;;;19.69;100.00
34103;BME280;20381;54.498;18.206;2023-08-30T11:33:26;98565.30;;;19.48;100.00
34103;BME280;20381;54.498;18.206;2023-08-30T11:35:56;98567.04;;;19.33;100.00
34103;BME280;20381;54.498;18.206;2023-08-30T11:38:26;98559.19;;;19.20;100.00
34103;BME280;20381;54.498;18.206;2023-08-30T11:40:54;98556.05;;;19.26;100.00
34103;BME280;20381;54.498;18.206;2023-08-30T11:43:24;98549.59;;;19.41;100.00
34103;BME280;20381;54.498;18.206;2023-08-30T11:45:56;98553.13;;;19.55;100.00
34103;BME280;20381;54.498;18.206;2023-08-30T11:48:28;98548.62;;;19.63;100.00
34103;BME280;20381;54.498;18.206;2023-08-30T11:51:10;98546.56;;;19.59;100.00
34103;BME280;20381;54.498;18.206;2023-08-30T11:53:46;98545.63;;;19.56;100.00
34103;BME280;20381;54.498;18.206;2023-08-30T11:56:20;98548.84;;;19.56;100.00
34103;BME280;20381;54.498;18.206;2023-08-30T11:58:52;98547.48;;;19.57;100.00
34103;BME280;20381;54.498;18.206;2023-08-30T12:01:24;98543.39;;;19.59;100.00
34103;BME280;20381;54.498;18.206;2023-08-30T12:03:57;98544.19;;;19.61;100.00
34103;BME280;20381;54.498;18.206;2023-08-30T12:06:34;98543.16;;;19.70;100.00
34103;BME280;20381;54.498;18.206;2023-08-30T12:09:23;98547.48;;;19.72;100.00
34103;BME280;20381;54.498;18.206;2023-08-30T12:11:54;98550.21;;;19.68;100.00
34103;BME280;20381;54.498;18.206;2023-08-30T12:14:40;98544.08;;;19.68;100.00
34103;BME280;20381;54.498;18.206;2023-08-30T12:17:09;98547.54;;;19.68;100.00
34103;BME280;20381;54.498;18.206;2023-08-30T12:19:46;98547.79;;;19.68;100.00
34103;BME280;20381;54.498;18.206;2023-08-30T12:22:18;98548.04;;;19.62;100.00
34103;BME280;20381;54.498;18.206;2023-08-30T12:24:51;98543.23;;;19.52;100.00
34103;BME280;20381;54.498;18.206;2023-08-30T12:27:30;98541.02;;;19.40;100.00
34103;BME280;20381;54.498;18.206;2023-08-30T12:30:16;98536.14;;;19.41;100.00
34103;BME280;20381;54.498;18.206;2023-08-30T12:32:46;98537.77;;;19.48;100.00
34103;BME280;20381;54.498;18.206;2023-08-30T12:35:17;98534.96;;;19.62;100.00
34103;BME280;20381;54.498;18.206;2023-08-30T12:37:46;98538.64;;;19.81;100.00
34103;BME280;20381;54.498;18.206;2023-08-30T12:40:15;98536.81;;;19.88;100.00
34103;BME280;20381;54.498;18.206;2023-08-30T12:42:47;98539.71;;;19.95;100.00
34103;BME280;20381;54.498;18.206;2023-08-30T12:45:18;98539.48;;;20.05;100.00
34103;BME280;20381;54.498;18.206;2023-08-30T12:47:47;98537.67;;;20.15;100.00
34103;BME280;20381;54.498;18.206;2023-08-30T12:50:16;98535.77;;;20.18;100.00
34103;BME280;20381;54.498;18.206;2023-08-30T12:52:45;98531.97;;;20.24;100.00
34103;BME280;20381;54.498;18.206;2023-08-30T12:55:14;98534.13;;;20.32;100.00
34103;BME280;20381;54.498;18.206;2023-08-30T12:57:46;98538.88;;;20.32;100.00
34103;BME280;20381;54.498;18.206;2023-08-30T13:00:14;98540.45;;;20.27;100.00
34103;BME280;20381;54.498;18.206;2023-08-30T13:02:44;98538.57;;;20.20;100.00
34103;BME280;20381;54.498;18.206;2023-08-30T13:05:16;98540.48;;;20.19;100.00
34103;BME280;20381;54.498;18.206;2023-08-30T13:07:46;98541.36;;;20.16;100.00